sensor_id;sensor_type;location;lat;lon;timestamp;temperature;humidity
17152;DHT22;8691;50.828;4.700;2022-12-05T00:02:02;2.30;99.90
17152;DHT22;8691;50.828;4.700;2022-12-05T00:04:29;2.40;99.90
17152;DHT22;8691;50.828;4.700;2022-12-05T00:06:56;2.30;99.90
17152;DHT22;8691;50.828;4.700;2022-12-05T00:09:23;2.40;99.90
17152;DHT22;8691;50.828;4.700;2022-12-05T00:11:50;2.30;99.90
17152;DHT22;8691;50.828;4.700;2022-12-05T00:14:17;2.30;99.90
17152;DHT22;8691;50.828;4.700;2022-12-05T00:16:43;2.30;99.90
17152;DHT22;8691;50.828;4.700;2022-12-05T00:19:11;2.40;99.90
17152;DHT22;8691;50.828;4.700;2022-12-05T00:21:37;2.30;99.90
17152;DHT22;8691;50.828;4.700;2022-12-05T00:24:04;2.40;99.90
17152;DHT22;8691;50.828;4.700;2022-12-05T00:26:31;2.40;99.90
17152;DHT22;8691;50.828;4.700;2022-12-05T00:28:58;2.40;99.90
17152;DHT22;8691;50.828;4.700;2022-12-05T00:31:25;2.40;99.90
17152;DHT22;8691;50.828;4.700;2022-12-05T00:33:52;2.40;99.90
17152;DHT22;8691;50.828;4.700;2022-12-05T00:36:25;2.40;99.90
17152;DHT22;8691;50.828;4.700;2022-12-05T00:38:52;2.40;99.90
17152;DHT22;8691;50.828;4.700;2022-12-05T00:41:21;2.40;99.90
17152;DHT22;8691;50.828;4.700;2022-12-05T00:43:46;2.40;99.90
17152;DHT22;8691;50.828;4.700;2022-12-05T00:46:14;2.40;99.90
17152;DHT22;8691;50.828;4.700;2022-12-05T00:48:40;2.40;99.90
17152;DHT22;8691;50.828;4.700;2022-12-05T00:51:17;2.40;99.90
17152;DHT22;8691;50.828;4.700;2022-12-05T00:53:44;2.40;99.90
17152;DHT22;8691;50.828;4.700;2022-12-05T00:56:14;2.30;99.90
17152;DHT22;8691;50.828;4.700;2022-12-05T00:58:40;2.40;99.90
17152;DHT22;8691;50.828;4.700;2022-12-05T01:01:11;2.40;99.90
17152;DHT22;8691;50.828;4.700;2022-12-05T01:03:36;2.30;99.90
17152;DHT22;8691;50.828;4.700;2022-12-05T01:06:03;2.40;99.90
17152;DHT22;8691;50.828;4.700;2022-12-05T01:08:30;2.40;99.90
17152;DHT22;8691;50.828;4.700;2022-12-05T01:10:57;2.50;99.90
17152;DHT22;8691;50.828;4.700;2022-12-05T01:13:25;2.50;99.90
17152;DHT22;8691;50.828;4.700;2022-12-05T01:15:52;2.50;99.90
17152;DHT22;8691;50.828;4.700;2022-12-05T01:18:19;2.50;99.90
17152;DHT22;8691;50.828;4.700;2022-12-05T01:20:45;2.60;99.90
17152;DHT22;8691;50.828;4.700;2022-12-05T01:23:12;2.50;99.90
17152;DHT22;8691;50.828;4.700;2022-12-05T01:25:44;2.60;99.90
17152;DHT22;8691;50.828;4.700;2022-12-05T01:28:10;2.60;99.90
17152;DHT22;8691;50.828;4.700;2022-12-05T01:30:41;2.60;99.90
17152;DHT22;8691;50.828;4.700;2022-12-05T01:33:07;2.60;99.90
17152;DHT22;8691;50.828;4.700;2022-12-05T01:35:34;2.60;99.90
17152;DHT22;8691;50.828;4.700;2022-12-05T01:38:02;2.60;99.90
17152;DHT22;8691;50.828;4.700;2022-12-05T01:40:29;2.70;99.90
17152;DHT22;8691;50.828;4.700;2022-12-05T01:42:56;2.70;99.90
17152;DHT22;8691;50.828;4.700;2022-12-05T01:45:36;2.70;99.90
17152;DHT22;8691;50.828;4.700;2022-12-05T01:48:03;2.70;99.90
17152;DHT22;8691;50.828;4.700;2022-12-05T01:50:29;2.70;99.90
17152;DHT22;8691;50.828;4.700;2022-12-05T01:52:56;2.70;99.90
17152;DHT22;8691;50.828;4.700;2022-12-05T01:55:23;2.70;99.90
17152;DHT22;8691;50.828;4.700;2022-12-05T01:57:50;2.70;99.90
17152;DHT22;8691;50.828;4.700;2022-12-05T02:00:18;2.70;99.90
17152;DHT22;8691;50.828;4.700;2022-12-05T02:02:47;2.70;99.90
17152;DHT22;8691;50.828;4.700;2022-12-05T02:05:28;2.90;99.90
17152;DHT22;8691;50.828;4.700;2022-12-05T02:07:51;2.80;99.90
17152;DHT22;8691;50.828;4.700;2022-12-05T02:10:18;2.70;99.90
17152;DHT22;8691;50.828;4.700;2022-12-05T02:12:45;2.70;99.90
17152;DHT22;8691;50.828;4.700;2022-12-05T02:20:48;2.80;99.90
17152;DHT22;8691;50.828;4.700;2022-12-05T02:29:25;2.70;99.90
17152;DHT22;8691;50.828;4.700;2022-12-05T02:34:53;2.70;99.90
17152;DHT22;8691;50.828;4.700;2022-12-05T02:37:20;2.70;99.90
17152;DHT22;8691;50.828;4.700;2022-12-05T02:40:04;2.70;99.90
17152;DHT22;8691;50.828;4.700;2022-12-05T02:42:40;2.70;99.90
17152;DHT22;8691;50.828;4.700;2022-12-05T02:45:07;2.80;99.90
17152;DHT22;8691;50.828;4.700;2022-12-05T02:47:32;2.70;99.90
17152;DHT22;8691;50.828;4.700;2022-12-05T02:49:59;2.80;99.90
17152;DHT22;8691;50.828;4.700;2022-12-05T02:52:26;2.80;99.90
17152;DHT22;8691;50.828;4.700;2022-12-05T02:54:53;2.80;99.90
17152;DHT22;8691;50.828;4.700;2022-12-05T02:57:21;2.90;99.90
17152;DHT22;8691;50.828;4.700;2022-12-05T02:59:47;2.90;99.90
17152;DHT22;8691;50.828;4.700;2022-12-05T03:02:28;2.90;99.90
17152;DHT22;8691;50.828;4.700;2022-12-05T03:04:57;2.80;99.90
17152;DHT22;8691;50.828;4.700;2022-12-05T03:07:21;2.80;99.90
17152;DHT22;8691;50.828;4.700;2022-12-05T03:09:50;2.80;99.90
17152;DHT22;8691;50.828;4.700;2022-12-05T03:14:46;2.80;99.90
17152;DHT22;8691;50.828;4.700;2022-12-05T03:17:10;2.80;99.90
17152;DHT22;8691;50.828;4.700;2022-12-05T03:19:48;2.70;99.90
17152;DHT22;8691;50.828;4.700;2022-12-05T03:22:05;2.70;99.90
17152;DHT22;8691;50.828;4.700;2022-12-05T03:24:29;2.70;99.90
17152;DHT22;8691;50.828;4.700;2022-12-05T03:37:26;2.50;99.90
17152;DHT22;8691;50.828;4.700;2022-12-05T03:39:53;2.50;99.90
17152;DHT22;8691;50.828;4.700;2022-12-05T03:42:19;2.50;99.90
17152;DHT22;8691;50.828;4.700;2022-12-05T03:44:49;2.50;99.90
17152;DHT22;8691;50.828;4.700;2022-12-05T03:47:16;2.50;99.90
17152;DHT22;8691;50.828;4.700;2022-12-05T03:49:51;2.50;99.90
17152;DHT22;8691;50.828;4.700;2022-12-05T03:52:26;2.40;99.90
17152;DHT22;8691;50.828;4.700;2022-12-05T03:54:57;2.40;99.90
17152;DHT22;8691;50.828;4.700;2022-12-05T03:57:25;2.40;99.90
17152;DHT22;8691;50.828;4.700;2022-12-05T03:59:56;2.50;99.90
17152;DHT22;8691;50.828;4.700;2022-12-05T04:05:16;2.50;99.90
17152;DHT22;8691;50.828;4.700;2022-12-05T04:07:26;2.50;99.90
17152;DHT22;8691;50.828;4.700;2022-12-05T04:09:56;2.50;99.90
17152;DHT22;8691;50.828;4.700;2022-12-05T04:12:24;2.50;99.90
17152;DHT22;8691;50.828;4.700;2022-12-05T04:14:51;2.50;99.90
17152;DHT22;8691;50.828;4.700;2022-12-05T04:17:19;2.50;99.90
17152;DHT22;8691;50.828;4.700;2022-12-05T04:19:47;2.50;99.90
17152;DHT22;8691;50.828;4.700;2022-12-05T04:22:31;2.50;99.90
17152;DHT22;8691;50.828;4.700;2022-12-05T04:24:58;2.50;99.90
17152;DHT22;8691;50.828;4.700;2022-12-05T04:30:25;2.50;99.90
17152;DHT22;8691;50.828;4.700;2022-12-05T04:33:10;2.50;99.90
17152;DHT22;8691;50.828;4.700;2022-12-05T04:35:55;2.50;99.90
17152;DHT22;8691;50.828;4.700;2022-12-05T04:38:24;2.60;99.90
17152;DHT22;8691;50.828;4.700;2022-12-05T04:40:56;2.60;99.90
17152;DHT22;8691;50.828;4.700;2022-12-05T04:43:17;2.60;99.90
17152;DHT22;8691;50.828;4.700;2022-12-05T04:45:44;2.70;99.90
17152;DHT22;8691;50.828;4.700;2022-12-05T04:48:11;2.70;99.90
17152;DHT22;8691;50.828;4.700;2022-12-05T04:50:37;2.70;99.90
17152;DHT22;8691;50.828;4.700;2022-12-05T04:53:04;2.70;99.90
17152;DHT22;8691;50.828;4.700;2022-12-05T04:55:32;2.70;99.90
17152;DHT22;8691;50.828;4.700;2022-12-05T04:58:03;2.70;99.90
17152;DHT22;8691;50.828;4.700;2022-12-05T05:00:28;2.70;99.90
17152;DHT22;8691;50.828;4.700;2022-12-05T05:03:07;2.70;99.90
17152;DHT22;8691;50.828;4.700;2022-12-05T05:05:30;2.70;99.90
17152;DHT22;8691;50.828;4.700;2022-12-05T05:07:57;2.80;99.90
17152;DHT22;8691;50.828;4.700;2022-12-05T05:10:40;2.80;99.90
17152;DHT22;8691;50.828;4.700;2022-12-05T05:13:02;2.80;99.90
17152;DHT22;8691;50.828;4.700;2022-12-05T05:15:29;2.80;99.90
17152;DHT22;8691;50.828;4.700;2022-12-05T05:17:56;2.80;99.90
17152;DHT22;8691;50.828;4.700;2022-12-05T05:20:22;2.70;99.90
17152;DHT22;8691;50.828;4.700;2022-12-05T05:22:50;2.80;99.90
17152;DHT22;8691;50.828;4.700;2022-12-05T05:25:17;2.80;99.90
17152;DHT22;8691;50.828;4.700;2022-12-05T05:27:47;2.70;99.90
17152;DHT22;8691;50.828;4.700;2022-12-05T05:30:10;2.90;99.90
17152;DHT22;8691;50.828;4.700;2022-12-05T05:32:37;2.90;99.90
17152;DHT22;8691;50.828;4.700;2022-12-05T05:35:04;2.90;99.90
17152;DHT22;8691;50.828;4.700;2022-12-05T05:37:31;2.80;99.90
17152;DHT22;8691;50.828;4.700;2022-12-05T05:39:58;2.80;99.90
17152;DHT22;8691;50.828;4.700;2022-12-05T05:42:25;2.80;99.90
17152;DHT22;8691;50.828;4.700;2022-12-05T05:44:52;2.80;99.90
17152;DHT22;8691;50.828;4.700;2022-12-05T05:47:19;2.80;99.90
17152;DHT22;8691;50.828;4.700;2022-12-05T05:49:46;2.80;99.90
17152;DHT22;8691;50.828;4.700;2022-12-05T05:52:14;2.80;99.90
17152;DHT22;8691;50.828;4.700;2022-12-05T05:54:41;2.80;99.90
17152;DHT22;8691;50.828;4.700;2022-12-05T05:57:08;2.80;99.90
17152;DHT22;8691;50.828;4.700;2022-12-05T05:59:34;2.80;99.90
17152;DHT22;8691;50.828;4.700;2022-12-05T06:02:01;2.80;99.90
17152;DHT22;8691;50.828;4.700;2022-12-05T06:04:28;2.90;99.90
17152;DHT22;8691;50.828;4.700;2022-12-05T06:06:55;2.90;99.90
17152;DHT22;8691;50.828;4.700;2022-12-05T06:09:23;2.90;99.90
17152;DHT22;8691;50.828;4.700;2022-12-05T06:11:50;2.90;99.90
17152;DHT22;8691;50.828;4.700;2022-12-05T06:14:17;2.90;99.90
17152;DHT22;8691;50.828;4.700;2022-12-05T06:16:43;3.00;99.90
17152;DHT22;8691;50.828;4.700;2022-12-05T06:19:10;3.00;99.90
17152;DHT22;8691;50.828;4.700;2022-12-05T06:21:37;3.00;99.90
17152;DHT22;8691;50.828;4.700;2022-12-05T06:24:04;2.90;99.90
17152;DHT22;8691;50.828;4.700;2022-12-05T06:26:31;2.90;99.90
17152;DHT22;8691;50.828;4.700;2022-12-05T06:28:58;2.90;99.90
17152;DHT22;8691;50.828;4.700;2022-12-05T06:31:25;2.90;99.90
17152;DHT22;8691;50.828;4.700;2022-12-05T06:33:52;2.90;99.90
17152;DHT22;8691;50.828;4.700;2022-12-05T06:36:20;2.90;99.90
17152;DHT22;8691;50.828;4.700;2022-12-05T06:38:46;2.90;99.90
17152;DHT22;8691;50.828;4.700;2022-12-05T06:41:14;2.90;99.90
17152;DHT22;8691;50.828;4.700;2022-12-05T06:43:40;2.90;99.90
17152;DHT22;8691;50.828;4.700;2022-12-05T06:46:07;2.90;99.90
17152;DHT22;8691;50.828;4.700;2022-12-05T06:48:34;3.00;99.90
17152;DHT22;8691;50.828;4.700;2022-12-05T06:51:01;3.00;99.90
17152;DHT22;8691;50.828;4.700;2022-12-05T06:53:28;2.90;99.90
17152;DHT22;8691;50.828;4.700;2022-12-05T06:55:56;2.80;99.90
17152;DHT22;8691;50.828;4.700;2022-12-05T06:58:22;2.80;99.90
17152;DHT22;8691;50.828;4.700;2022-12-05T07:00:49;2.80;99.90
17152;DHT22;8691;50.828;4.700;2022-12-05T07:03:33;2.80;99.90
17152;DHT22;8691;50.828;4.700;2022-12-05T07:06:01;2.70;99.90
17152;DHT22;8691;50.828;4.700;2022-12-05T07:08:27;2.70;99.90
17152;DHT22;8691;50.828;4.700;2022-12-05T07:10:53;2.70;99.90
17152;DHT22;8691;50.828;4.700;2022-12-05T07:13:20;2.80;99.90
17152;DHT22;8691;50.828;4.700;2022-12-05T07:15:48;2.80;99.90
17152;DHT22;8691;50.828;4.700;2022-12-05T07:18:15;2.90;99.90
17152;DHT22;8691;50.828;4.700;2022-12-05T07:20:42;2.90;99.90
17152;DHT22;8691;50.828;4.700;2022-12-05T07:23:09;2.90;99.90
17152;DHT22;8691;50.828;4.700;2022-12-05T07:25:39;2.90;99.90
17152;DHT22;8691;50.828;4.700;2022-12-05T07:28:06;2.90;99.90
17152;DHT22;8691;50.828;4.700;2022-12-05T07:30:33;2.90;99.90
17152;DHT22;8691;50.828;4.700;2022-12-05T07:33:00;2.90;99.90
17152;DHT22;8691;50.828;4.700;2022-12-05T07:35:26;2.90;99.90
17152;DHT22;8691;50.828;4.700;2022-12-05T07:37:53;2.90;99.90
17152;DHT22;8691;50.828;4.700;2022-12-05T07:40:20;2.90;99.90
17152;DHT22;8691;50.828;4.700;2022-12-05T07:42:47;2.90;99.90
17152;DHT22;8691;50.828;4.700;2022-12-05T07:45:14;2.90;99.90
17152;DHT22;8691;50.828;4.700;2022-12-05T07:47:41;2.80;99.90
17152;DHT22;8691;50.828;4.700;2022-12-05T07:50:08;2.90;99.90
17152;DHT22;8691;50.828;4.700;2022-12-05T07:52:35;2.90;99.90
17152;DHT22;8691;50.828;4.700;2022-12-05T07:55:02;3.00;99.90
17152;DHT22;8691;50.828;4.700;2022-12-05T07:57:29;3.00;99.90
17152;DHT22;8691;50.828;4.700;2022-12-05T07:59:55;3.10;99.90
17152;DHT22;8691;50.828;4.700;2022-12-05T08:02:22;3.00;99.90
17152;DHT22;8691;50.828;4.700;2022-12-05T08:04:49;3.10;99.90
17152;DHT22;8691;50.828;4.700;2022-12-05T08:07:15;3.00;99.90
17152;DHT22;8691;50.828;4.700;2022-12-05T08:09:43;3.10;99.90
17152;DHT22;8691;50.828;4.700;2022-12-05T08:12:10;3.00;99.90
17152;DHT22;8691;50.828;4.700;2022-12-05T08:14:38;3.10;99.90
17152;DHT22;8691;50.828;4.700;2022-12-05T08:17:05;3.10;99.90
17152;DHT22;8691;50.828;4.700;2022-12-05T08:19:32;3.20;99.90
17152;DHT22;8691;50.828;4.700;2022-12-05T08:21:58;3.20;99.90
17152;DHT22;8691;50.828;4.700;2022-12-05T08:24:25;3.20;99.90
17152;DHT22;8691;50.828;4.700;2022-12-05T08:26:52;3.20;99.90
17152;DHT22;8691;50.828;4.700;2022-12-05T08:29:20;3.20;99.90
17152;DHT22;8691;50.828;4.700;2022-12-05T08:31:46;3.30;99.90
17152;DHT22;8691;50.828;4.700;2022-12-05T08:34:13;3.30;99.90
17152;DHT22;8691;50.828;4.700;2022-12-05T08:36:39;3.30;99.90
17152;DHT22;8691;50.828;4.700;2022-12-05T08:39:06;3.30;99.90
17152;DHT22;8691;50.828;4.700;2022-12-05T08:41:33;3.30;99.90
17152;DHT22;8691;50.828;4.700;2022-12-05T08:44:02;3.20;99.90
17152;DHT22;8691;50.828;4.700;2022-12-05T08:46:31;3.20;99.90
17152;DHT22;8691;50.828;4.700;2022-12-05T08:48:58;3.20;99.90
17152;DHT22;8691;50.828;4.700;2022-12-05T08:51:24;3.30;99.90
17152;DHT22;8691;50.828;4.700;2022-12-05T08:53:52;3.30;99.90
17152;DHT22;8691;50.828;4.700;2022-12-05T08:56:19;3.40;99.90
17152;DHT22;8691;50.828;4.700;2022-12-05T08:58:46;3.30;99.90
17152;DHT22;8691;50.828;4.700;2022-12-05T09:01:14;3.40;99.90
17152;DHT22;8691;50.828;4.700;2022-12-05T09:03:41;3.40;99.90
17152;DHT22;8691;50.828;4.700;2022-12-05T09:06:10;3.50;99.90
17152;DHT22;8691;50.828;4.700;2022-12-05T09:08:37;3.50;99.90
17152;DHT22;8691;50.828;4.700;2022-12-05T09:11:08;3.60;99.90
17152;DHT22;8691;50.828;4.700;2022-12-05T09:13:34;3.60;99.90
17152;DHT22;8691;50.828;4.700;2022-12-05T09:16:05;3.60;99.90
17152;DHT22;8691;50.828;4.700;2022-12-05T09:18:31;3.70;99.90
17152;DHT22;8691;50.828;4.700;2022-12-05T09:20:57;3.70;99.90
17152;DHT22;8691;50.828;4.700;2022-12-05T09:23:24;3.60;99.90
17152;DHT22;8691;50.828;4.700;2022-12-05T09:25:54;3.60;99.90
17152;DHT22;8691;50.828;4.700;2022-12-05T09:28:21;3.60;99.90
17152;DHT22;8691;50.828;4.700;2022-12-05T09:30:57;3.60;99.90
17152;DHT22;8691;50.828;4.700;2022-12-05T09:33:24;3.60;99.90
17152;DHT22;8691;50.828;4.700;2022-12-05T09:35:50;3.60;99.90
17152;DHT22;8691;50.828;4.700;2022-12-05T09:38:18;3.70;99.90
17152;DHT22;8691;50.828;4.700;2022-12-05T09:40:45;3.70;99.90
17152;DHT22;8691;50.828;4.700;2022-12-05T09:43:28;3.70;99.90
17152;DHT22;8691;50.828;4.700;2022-12-05T09:45:59;3.80;99.90
17152;DHT22;8691;50.828;4.700;2022-12-05T09:48:22;3.80;99.90
17152;DHT22;8691;50.828;4.700;2022-12-05T09:50:54;3.80;99.90
17152;DHT22;8691;50.828;4.700;2022-12-05T09:53:33;3.80;99.90
17152;DHT22;8691;50.828;4.700;2022-12-05T10:01:36;3.80;99.90
17152;DHT22;8691;50.828;4.700;2022-12-05T10:12:28;3.90;99.90
17152;DHT22;8691;50.828;4.700;2022-12-05T10:17:33;3.90;99.90
17152;DHT22;8691;50.828;4.700;2022-12-05T10:20:02;3.90;99.90
17152;DHT22;8691;50.828;4.700;2022-12-05T10:22:42;4.00;99.90
17152;DHT22;8691;50.828;4.700;2022-12-05T10:25:03;4.00;99.90
17152;DHT22;8691;50.828;4.700;2022-12-05T10:27:32;4.10;99.90
17152;DHT22;8691;50.828;4.700;2022-12-05T10:29:57;4.10;99.90
17152;DHT22;8691;50.828;4.700;2022-12-05T10:32:48;4.10;99.90
17152;DHT22;8691;50.828;4.700;2022-12-05T10:37:52;4.20;99.90
17152;DHT22;8691;50.828;4.700;2022-12-05T10:40:18;4.20;99.90
17152;DHT22;8691;50.828;4.700;2022-12-05T10:42:45;4.20;99.90
17152;DHT22;8691;50.828;4.700;2022-12-05T10:45:18;4.20;99.90
17152;DHT22;8691;50.828;4.700;2022-12-05T10:47:42;4.20;99.90
17152;DHT22;8691;50.828;4.700;2022-12-05T10:50:17;4.20;99.90
17152;DHT22;8691;50.828;4.700;2022-12-05T10:52:36;4.20;99.90
17152;DHT22;8691;50.828;4.700;2022-12-05T10:55:04;4.20;99.90
17152;DHT22;8691;50.828;4.700;2022-12-05T10:57:30;4.20;99.90
17152;DHT22;8691;50.828;4.700;2022-12-05T10:59:57;4.10;99.90
17152;DHT22;8691;50.828;4.700;2022-12-05T11:02:27;4.10;99.90
17152;DHT22;8691;50.828;4.700;2022-12-05T11:04:54;4.00;99.90
17152;DHT22;8691;50.828;4.700;2022-12-05T11:09:53;4.10;99.90
17152;DHT22;8691;50.828;4.700;2022-12-05T11:12:22;4.10;99.90
17152;DHT22;8691;50.828;4.700;2022-12-05T11:14:55;4.10;99.90
17152;DHT22;8691;50.828;4.700;2022-12-05T11:17:29;4.10;99.90
17152;DHT22;8691;50.828;4.700;2022-12-05T11:19:53;4.10;99.90
17152;DHT22;8691;50.828;4.700;2022-12-05T11:22:20;4.10;99.90
17152;DHT22;8691;50.828;4.700;2022-12-05T11:24:47;4.20;99.90
17152;DHT22;8691;50.828;4.700;2022-12-05T11:27:27;4.20;99.90
17152;DHT22;8691;50.828;4.700;2022-12-05T11:32:27;4.10;99.90
17152;DHT22;8691;50.828;4.700;2022-12-05T11:37:47;4.20;99.90
17152;DHT22;8691;50.828;4.700;2022-12-05T11:45:55;4.40;99.90
17152;DHT22;8691;50.828;4.700;2022-12-05T11:51:16;4.40;99.90
17152;DHT22;8691;50.828;4.700;2022-12-05T11:54:05;4.40;99.90
17152;DHT22;8691;50.828;4.700;2022-12-05T11:56:37;4.40;99.90
17152;DHT22;8691;50.828;4.700;2022-12-05T12:04:48;4.30;99.90
17152;DHT22;8691;50.828;4.700;2022-12-05T12:12:57;4.40;99.90
17152;DHT22;8691;50.828;4.700;2022-12-05T12:15:47;4.40;99.90
17152;DHT22;8691;50.828;4.700;2022-12-05T12:21:48;4.50;99.90
17152;DHT22;8691;50.828;4.700;2022-12-05T12:26:09;4.60;99.90
17152;DHT22;8691;50.828;4.700;2022-12-05T12:31:30;4.60;99.90
17152;DHT22;8691;50.828;4.700;2022-12-05T12:34:04;4.60;99.90
17152;DHT22;8691;50.828;4.700;2022-12-05T12:46:55;4.50;99.90
17152;DHT22;8691;50.828;4.700;2022-12-05T12:52:00;4.50;99.90
17152;DHT22;8691;50.828;4.700;2022-12-05T12:54:40;4.50;99.90
17152;DHT22;8691;50.828;4.700;2022-12-05T12:57:31;4.60;99.90
17152;DHT22;8691;50.828;4.700;2022-12-05T13:00:03;4.60;99.90
17152;DHT22;8691;50.828;4.700;2022-12-05T13:02:43;4.70;99.90
17152;DHT22;8691;50.828;4.700;2022-12-05T13:05:41;4.80;99.90
17152;DHT22;8691;50.828;4.700;2022-12-05T13:08:35;4.90;99.90
17152;DHT22;8691;50.828;4.700;2022-12-05T13:10:41;4.80;99.90
17152;DHT22;8691;50.828;4.700;2022-12-05T13:13:07;4.80;99.90
17152;DHT22;8691;50.828;4.700;2022-12-05T13:15:35;4.70;99.90
17152;DHT22;8691;50.828;4.700;2022-12-05T13:18:01;4.70;99.90
17152;DHT22;8691;50.828;4.700;2022-12-05T13:20:29;4.70;99.90
17152;DHT22;8691;50.828;4.700;2022-12-05T13:22:54;4.70;99.90
17152;DHT22;8691;50.828;4.700;2022-12-05T13:25:23;4.60;99.90
17152;DHT22;8691;50.828;4.700;2022-12-05T13:27:58;4.60;99.90
17152;DHT22;8691;50.828;4.700;2022-12-05T13:30:22;4.70;99.90
17152;DHT22;8691;50.828;4.700;2022-12-05T13:32:54;4.80;99.90
17152;DHT22;8691;50.828;4.700;2022-12-05T13:35:21;4.80;99.90
17152;DHT22;8691;50.828;4.700;2022-12-05T13:38:04;4.80;99.90
17152;DHT22;8691;50.828;4.700;2022-12-05T13:40:52;4.90;99.90
17152;DHT22;8691;50.828;4.700;2022-12-05T13:43:40;4.90;99.90
17152;DHT22;8691;50.828;4.700;2022-12-05T13:46:10;4.80;99.90
17152;DHT22;8691;50.828;4.700;2022-12-05T13:48:40;4.80;99.90
17152;DHT22;8691;50.828;4.700;2022-12-05T13:51:11;4.70;99.90
17152;DHT22;8691;50.828;4.700;2022-12-05T13:58:54;4.70;99.90
17152;DHT22;8691;50.828;4.700;2022-12-05T14:03:57;4.60;99.90
17152;DHT22;8691;50.828;4.700;2022-12-05T14:17:35;4.60;99.90
17152;DHT22;8691;50.828;4.700;2022-12-05T14:20:01;4.50;99.90
17152;DHT22;8691;50.828;4.700;2022-12-05T14:28:01;4.50;99.90
17152;DHT22;8691;50.828;4.700;2022-12-05T14:30:34;4.50;99.90
17152;DHT22;8691;50.828;4.700;2022-12-05T14:32:58;4.50;99.90
17152;DHT22;8691;50.828;4.700;2022-12-05T14:35:26;4.50;99.90
17152;DHT22;8691;50.828;4.700;2022-12-05T14:37:53;4.50;99.90
17152;DHT22;8691;50.828;4.700;2022-12-05T14:40:25;4.50;99.90
17152;DHT22;8691;50.828;4.700;2022-12-05T14:42:50;4.40;99.90
17152;DHT22;8691;50.828;4.700;2022-12-05T14:48:02;4.30;99.90
17152;DHT22;8691;50.828;4.700;2022-12-05T14:50:43;4.30;99.90
17152;DHT22;8691;50.828;4.700;2022-12-05T14:56:11;4.30;99.90
17152;DHT22;8691;50.828;4.700;2022-12-05T15:01:28;4.30;99.90
17152;DHT22;8691;50.828;4.700;2022-12-05T15:04:04;4.20;99.90
17152;DHT22;8691;50.828;4.700;2022-12-05T15:06:29;4.30;99.90
17152;DHT22;8691;50.828;4.700;2022-12-05T15:08:56;4.30;99.90
17152;DHT22;8691;50.828;4.700;2022-12-05T15:11:24;4.30;99.90
17152;DHT22;8691;50.828;4.700;2022-12-05T15:14:09;4.30;99.90
17152;DHT22;8691;50.828;4.700;2022-12-05T15:16:23;4.30;99.90
17152;DHT22;8691;50.828;4.700;2022-12-05T15:18:50;4.20;99.90
17152;DHT22;8691;50.828;4.700;2022-12-05T15:21:37;4.30;99.90
17152;DHT22;8691;50.828;4.700;2022-12-05T15:24:02;4.30;99.90
17152;DHT22;8691;50.828;4.700;2022-12-05T15:29:12;4.20;99.90
17152;DHT22;8691;50.828;4.700;2022-12-05T15:31:44;4.20;99.90
17152;DHT22;8691;50.828;4.700;2022-12-05T15:34:15;4.20;99.90
17152;DHT22;8691;50.828;4.700;2022-12-05T15:36:39;4.20;99.90
17152;DHT22;8691;50.828;4.700;2022-12-05T15:39:19;4.20;99.90
17152;DHT22;8691;50.828;4.700;2022-12-05T15:41:45;4.20;99.90
17152;DHT22;8691;50.828;4.700;2022-12-05T15:44:11;4.20;99.90
17152;DHT22;8691;50.828;4.700;2022-12-05T15:46:38;4.20;99.90
17152;DHT22;8691;50.828;4.700;2022-12-05T15:49:16;4.20;99.90
17152;DHT22;8691;50.828;4.700;2022-12-05T15:51:41;4.20;99.90
17152;DHT22;8691;50.828;4.700;2022-12-05T15:54:23;4.20;99.90
17152;DHT22;8691;50.828;4.700;2022-12-05T15:59:25;4.10;99.90
17152;DHT22;8691;50.828;4.700;2022-12-05T16:01:55;4.10;99.90
17152;DHT22;8691;50.828;4.700;2022-12-05T16:04:22;4.10;99.90
17152;DHT22;8691;50.828;4.700;2022-12-05T16:06:51;4.10;99.90
17152;DHT22;8691;50.828;4.700;2022-12-05T16:09:23;4.10;99.90
17152;DHT22;8691;50.828;4.700;2022-12-05T16:11:56;4.10;99.90
17152;DHT22;8691;50.828;4.700;2022-12-05T16:14:24;4.10;99.90
17152;DHT22;8691;50.828;4.700;2022-12-05T16:16:51;4.10;99.90
17152;DHT22;8691;50.828;4.700;2022-12-05T16:19:20;4.20;99.90
17152;DHT22;8691;50.828;4.700;2022-12-05T16:21:46;4.20;99.90
17152;DHT22;8691;50.828;4.700;2022-12-05T16:24:19;4.20;99.90
17152;DHT22;8691;50.828;4.700;2022-12-05T16:27:13;4.20;99.90
17152;DHT22;8691;50.828;4.700;2022-12-05T16:29:39;4.20;99.90
17152;DHT22;8691;50.828;4.700;2022-12-05T16:32:13;4.20;99.90
17152;DHT22;8691;50.828;4.700;2022-12-05T16:34:33;4.10;99.90
17152;DHT22;8691;50.828;4.700;2022-12-05T16:36:59;4.20;99.90
17152;DHT22;8691;50.828;4.700;2022-12-05T16:39:26;4.20;99.90
17152;DHT22;8691;50.828;4.700;2022-12-05T16:41:53;4.10;99.90
17152;DHT22;8691;50.828;4.700;2022-12-05T16:46:54;4.20;99.90
17152;DHT22;8691;50.828;4.700;2022-12-05T16:54:33;4.20;99.90
17152;DHT22;8691;50.828;4.700;2022-12-05T16:57:00;4.20;99.90
17152;DHT22;8691;50.828;4.700;2022-12-05T16:59:34;4.20;99.90
17152;DHT22;8691;50.828;4.700;2022-12-05T17:02:01;4.20;99.90
17152;DHT22;8691;50.828;4.700;2022-12-05T17:04:27;4.20;99.90
17152;DHT22;8691;50.828;4.700;2022-12-05T17:06:54;4.20;99.90
17152;DHT22;8691;50.828;4.700;2022-12-05T17:09:20;4.20;99.90
17152;DHT22;8691;50.828;4.700;2022-12-05T17:11:48;4.20;99.90
17152;DHT22;8691;50.828;4.700;2022-12-05T17:14:15;4.20;99.90
17152;DHT22;8691;50.828;4.700;2022-12-05T17:16:41;4.20;99.90
17152;DHT22;8691;50.828;4.700;2022-12-05T17:19:09;4.20;99.90
17152;DHT22;8691;50.828;4.700;2022-12-05T17:21:35;4.20;99.90
17152;DHT22;8691;50.828;4.700;2022-12-05T17:24:02;4.20;99.90
17152;DHT22;8691;50.828;4.700;2022-12-05T17:26:29;4.20;99.90
17152;DHT22;8691;50.828;4.700;2022-12-05T17:28:56;4.20;99.90
17152;DHT22;8691;50.828;4.700;2022-12-05T17:31:23;4.20;99.90
17152;DHT22;8691;50.828;4.700;2022-12-05T17:33:50;4.20;99.90
17152;DHT22;8691;50.828;4.700;2022-12-05T17:36:16;4.20;99.90
17152;DHT22;8691;50.828;4.700;2022-12-05T17:38:43;4.20;99.90
17152;DHT22;8691;50.828;4.700;2022-12-05T17:41:15;4.20;99.90
17152;DHT22;8691;50.828;4.700;2022-12-05T17:43:37;4.20;99.90
17152;DHT22;8691;50.828;4.700;2022-12-05T17:46:04;4.20;99.90
17152;DHT22;8691;50.828;4.700;2022-12-05T17:48:31;4.30;99.90
17152;DHT22;8691;50.828;4.700;2022-12-05T17:50:58;4.20;99.90
17152;DHT22;8691;50.828;4.700;2022-12-05T17:53:24;4.20;99.90
17152;DHT22;8691;50.828;4.700;2022-12-05T17:55:51;4.20;99.90
17152;DHT22;8691;50.828;4.700;2022-12-05T17:58:18;4.20;99.90
17152;DHT22;8691;50.828;4.700;2022-12-05T18:00:45;4.30;99.90
17152;DHT22;8691;50.828;4.700;2022-12-05T18:03:13;4.20;99.90
17152;DHT22;8691;50.828;4.700;2022-12-05T18:05:39;4.20;99.90
17152;DHT22;8691;50.828;4.700;2022-12-05T18:08:06;4.20;99.90
17152;DHT22;8691;50.828;4.700;2022-12-05T18:10:33;4.20;99.90
17152;DHT22;8691;50.828;4.700;2022-12-05T18:13:00;4.20;99.90
17152;DHT22;8691;50.828;4.700;2022-12-05T18:15:27;4.30;99.90
17152;DHT22;8691;50.828;4.700;2022-12-05T18:17:53;4.30;99.90
17152;DHT22;8691;50.828;4.700;2022-12-05T18:20:20;4.30;99.90
17152;DHT22;8691;50.828;4.700;2022-12-05T18:22:48;4.30;99.90
17152;DHT22;8691;50.828;4.700;2022-12-05T18:25:15;4.30;99.90
17152;DHT22;8691;50.828;4.700;2022-12-05T18:27:42;4.30;99.90
17152;DHT22;8691;50.828;4.700;2022-12-05T18:30:09;4.20;99.90
17152;DHT22;8691;50.828;4.700;2022-12-05T18:32:35;4.20;99.90
17152;DHT22;8691;50.828;4.700;2022-12-05T18:35:02;4.20;99.90
17152;DHT22;8691;50.828;4.700;2022-12-05T18:37:29;4.20;99.90
17152;DHT22;8691;50.828;4.700;2022-12-05T18:39:56;4.20;99.90